Neptune Aegli — 9HEX7 — position and weather

sailwx.info

Track history (hours):
 
Tides and Currents Weather Stations Pressure Air Temp Water Temp Dewpoint Dewpoint Depression Visibility Wind Speed Wind Dir Waves Ship Positions

Neptune Aegli

Last reported at 2018-Jun-24 06:59 UTC. Time now 2018-Jun-24 09:16 UTC.
Position N 47°15' W 005°25'.

Length 158 m; draft 5.2 m.

Type: Ship. MMSI: 215170000.

Date/timePositionNaut miles runAvg speedWind from/ knotsBaromVisibWave heightAir tempDewpointWater temp
2018-Jun-24 06:59N 47°15' W 005°25'816.9
2018-Jun-24 06:30N 47°23' W 005°28'1117.1
2018-Jun-24 05:50N 47°34' W 005°33'5116.9
2018-Jun-24 02:50N 48°22' W 005°56'616.8
2018-Jun-24 02:30N 48°27' W 005°58'917.4
2018-Jun-24 02:00N 48°36' W 006°02'1516.8
2018-Jun-24 01:06N 48°51' W 006°04'217.3
2018-Jun-24 01:00N 48°53' W 006°04'917.1
2018-Jun-24 00:30N 49°01' W 006°04'917.2
2018-Jun-23 23:58N 49°10' W 006°03'817.0
2018-Jun-23 23:30N 49°18' W 006°02'2116.8
2018-Jun-23 22:17N 49°39' W 006°02'2316.9
2018-Jun-23 20:57N 50°01' W 006°01'717.0
2018-Jun-23 20:30N 50°09' W 006°01'816.9
2018-Jun-23 20:00N 50°17' W 005°60'817.0
2018-Jun-23 19:30N 50°26' W 006°01'816.9
2018-Jun-23 19:00N 50°34' W 006°02'917.0
2018-Jun-23 18:30N 50°43' W 006°03'917.1
2018-Jun-23 18:00N 50°51' W 006°05'817.0
2018-Jun-23 17:30N 50°59' W 006°06'917.1
2018-Jun-23 17:00N 51°08' W 006°07'917.1
2018-Jun-23 16:31N 51°16' W 006°08'816.8
2018-Jun-23 16:00N 51°25' W 006°10'917.1
2018-Jun-23 15:30N 51°33' W 006°11'817.0
2018-Jun-23 15:00N 51°42' W 006°12'1217.0
2018-Jun-23 14:19N 51°53' W 006°14'516.9
2018-Jun-23 14:00N 51°59' W 006°15'916.9
2018-Jun-23 13:29N 52°08' W 006°16'715.8
2018-Jun-23 13:00N 52°15' W 006°18'2 2.5
2018-Jun-23 12:19N 52°15' W 006°20'0 0.0
2018-Jun-23 11:58N 52°15' W 006°20'0 0.0
2018-Jun-23 11:28N 52°15' W 006°20'0 0.0
2018-Jun-23 10:58N 52°15' W 006°20'0 0.0
2018-Jun-23 10:28N 52°15' W 006°20'0 0.0
2018-Jun-23 09:58N 52°15' W 006°20'0 0.0
2018-Jun-23 09:29N 52°15' W 006°20'1 1.1
2018-Jun-23 09:01N 52°16' W 006°20'611.0
2018-Jun-23 08:30N 52°11' W 006°16'1218.2
2018-Jun-23 07:52N 51°59' W 006°12'1918.8
2018-Jun-23 06:53N 51°41' W 006°05'616.7
2018-Jun-23 06:31N 51°37' W 005°57'1019.7
2018-Jun-23 06:01N 51°35' W 005°42'1020.2
2018-Jun-23 05:30N 51°33' W 005°26'1020.4
2018-Jun-23 05:01N 51°31' W 005°10'1020.6
2018-Jun-23 04:31N 51°30' W 004°53'1020.6
2018-Jun-23 04:01N 51°28' W 004°37'1020.4
2018-Jun-23 03:31N 51°26' W 004°21'2419.2
2018-Jun-23 02:14N 51°22' W 003°43'618.3
2018-Jun-23 01:56N 51°21' W 003°34'918.0
2018-Jun-23 01:26N 51°21' W 003°19'712.8
2018-Jun-23 00:52N 51°22' W 003°08'716.3
2018-Jun-23 00:28N 51°26' W 003°00'715.8
2018-Jun-23 00:00N 51°29' W 002°49'4 7.8
2018-Jun-22 23:30N 51°30' W 002°43'0 0.7
2018-Jun-22 23:00N 51°30' W 002°43'0 0.2
2018-Jun-22 22:29N 51°30' W 002°43'0 0.0
2018-Jun-22 21:59N 51°30' W 002°43'0 0.0
2018-Jun-22 21:29N 51°30' W 002°43'0 0.0
2018-Jun-22 20:59N 51°30' W 002°43'0 0.0
2018-Jun-22 20:29N 51°30' W 002°43'0 0.0
2018-Jun-22 19:59N 51°30' W 002°43'0 0.0
2018-Jun-22 19:29N 51°30' W 002°43'0 0.0
2018-Jun-22 18:59N 51°30' W 002°43'0 0.0
2018-Jun-22 18:29N 51°30' W 002°43'0 0.0
2018-Jun-22 17:59N 51°30' W 002°43'0 0.0
2018-Jun-22 17:29N 51°30' W 002°43'0 0.0
2018-Jun-22 16:59N 51°30' W 002°43'0 0.0
2018-Jun-22 16:29N 51°30' W 002°43'0 0.0
2018-Jun-22 15:59N 51°30' W 002°43'0 0.0
2018-Jun-22 15:29N 51°30' W 002°43'0 0.0
2018-Jun-22 14:59N 51°30' W 002°43'0 0.0
2018-Jun-22 14:29N 51°30' W 002°43'0 0.0
2018-Jun-22 13:59N 51°30' W 002°43'0 0.1
2018-Jun-22 13:30N 51°30' W 002°43'0 0.8
2018-Jun-22 13:00N 51°30' W 002°44'0 0.8
2018-Jun-22 12:30N 51°30' W 002°44'2 4.6
2018-Jun-22 12:00N 51°30' W 002°47'714.2
2018-Jun-22 11:30N 51°27' W 002°58'6210.4
2018-Jun-22 05:34N 51°06' W 004°31'110.8
2018-Jun-22 05:30N 51°06' W 004°32'510.4
2018-Jun-22 05:00N 51°02' W 004°38'510.6
2018-Jun-22 04:30N 50°59' W 004°44'610.9
2018-Jun-22 04:00N 50°55' W 004°51'511.1
2018-Jun-22 03:30N 50°52' W 004°58'611.1
2018-Jun-22 03:00N 50°48' W 005°04'611.0
2018-Jun-22 02:30N 50°44' W 005°11'510.9
2018-Jun-22 02:00N 50°41' W 005°17'611.0
2018-Jun-22 01:30N 50°37' W 005°24'511.0
2018-Jun-22 01:00N 50°33' W 005°30'511.0
2018-Jun-22 00:30N 50°30' W 005°36'610.9
2018-Jun-21 23:56N 50°25' W 005°44'55 8.1
2018-Jun-21 17:07N 49°59' W 004°28'615.9
2018-Jun-21 16:44N 49°60' W 004°19'816.0
2018-Jun-21 16:13N 50°03' W 004°07'816.2
2018-Jun-21 15:44N 50°04' W 003°55'716.1
2018-Jun-21 15:19N 50°05' W 003°45'516.0
2018-Jun-21 15:00N 50°07' W 003°37'815.9
2018-Jun-21 14:31N 50°10' W 003°26'816.2
2018-Jun-21 14:01N 50°13' W 003°14'816.0
2018-Jun-21 13:30N 50°16' W 003°02'815.9
2018-Jun-21 13:00N 50°19' W 002°51'815.8
2018-Jun-21 12:30N 50°21' W 002°39'815.8
2018-Jun-21 12:00N 50°24' W 002°28'1516.1
2018-Jun-21 11:03N 50°30' W 002°05'216.9
2018-Jun-21 10:55N 50°30' W 002°02'716.7
2018-Jun-21 10:30N 50°33' W 001°52'917.6
2018-Jun-21 10:00N 50°38' W 001°40'1019.4
2018-Jun-21 09:30N 50°44' W 001°28'713.6
2018-Jun-21 09:00N 50°47' W 001°19'612.1
2018-Jun-21 08:30N 50°53' W 001°23'2 4.2
2018-Jun-21 07:59N 50°54' W 001°26'0 0.1
2018-Jun-21 07:30N 50°54' W 001°26'0 0.0
2018-Jun-21 07:00N 50°54' W 001°26'0 0.0
2018-Jun-21 06:30N 50°54' W 001°26'0 0.0
2018-Jun-21 06:00N 50°54' W 001°26'0 0.0
2018-Jun-21 05:30N 50°54' W 001°26'0 0.0
2018-Jun-21 05:01N 50°54' W 001°26'2 3.9
2018-Jun-21 04:31N 50°53' W 001°24'510.4
2018-Jun-21 04:01N 50°49' W 001°18'4 7.7
2018-Jun-21 03:30N 50°46' W 001°14'917.6
2018-Jun-21 03:00N 50°43' W 001°01'714.0
2018-Jun-21 02:31N 50°36' W 000°57'714.1
2018-Jun-21 02:00N 50°30' W 000°52'917.3
2018-Jun-21 01:30N 50°23' W 000°45'2617.4
2018-Jun-21 00:02N 50°01' W 000°25'117.6
2018-Jun-20 23:58N 49°60' W 000°24'817.8
2018-Jun-20 23:30N 49°53' W 000°18'918.0
2018-Jun-20 23:00N 49°45' W 000°11'918.3
2018-Jun-20 22:30N 49°37' W 000°03'815.3
2018-Jun-20 22:00N 49°30' E 000°01'611.0
2018-Jun-20 21:30N 49°28' E 000°09'1 1.1
2018-Jun-20 21:00N 49°29' E 000°10'0 0.0
2018-Jun-20 20:30N 49°29' E 000°10'1 1.9
2018-Jun-20 19:58N 49°28' E 000°12'0 0.0
2018-Jun-20 19:28N 49°28' E 000°12'0 0.0
2018-Jun-20 18:58N 49°28' E 000°12'0 0.0
2018-Jun-20 18:28N 49°28' E 000°12'0 0.0
2018-Jun-20 17:58N 49°28' E 000°12'0 0.0
2018-Jun-20 17:28N 49°28' E 000°12'0 0.0
2018-Jun-20 16:58N 49°28' E 000°12'0 0.0
2018-Jun-20 16:28N 49°28' E 000°12'0 0.0
2018-Jun-20 15:58N 49°28' E 000°12'0 0.0
2018-Jun-20 15:28N 49°28' E 000°12'0 0.0
2018-Jun-20 14:58N 49°28' E 000°12'0 0.0
2018-Jun-20 14:28N 49°28' E 000°12'0 0.3
2018-Jun-20 14:01N 49°28' E 000°12'1 2.0
2018-Jun-20 13:30N 49°29' E 000°10'0 0.5
2018-Jun-20 13:00N 49°28' E 000°10'1 1.6
2018-Jun-20 12:30N 49°28' E 000°09'1 2.3
2018-Jun-20 12:00N 49°29' E 000°07'3 5.9
2018-Jun-20 11:30N 49°30' E 000°03'611.7
2018-Jun-20 11:00N 49°31' W 000°06'3 5.3
2018-Jun-20 10:30N 49°32' W 000°10'2 4.2
2018-Jun-20 10:00N 49°33' W 000°13'2 4.6
2018-Jun-20 09:30N 49°33' W 000°16'2 4.7
2018-Jun-20 09:00N 49°34' W 000°20'2 4.6
2018-Jun-20 08:30N 49°35' W 000°23'2 4.5
2018-Jun-20 08:00N 49°36' W 000°26'2 4.6
2018-Jun-20 07:31N 49°37' W 000°29'2 4.6
2018-Jun-20 06:59N 49°38' W 000°33'2 4.8
2018-Jun-20 06:30N 49°39' W 000°36'3 5.0
2018-Jun-20 05:59N 49°40' W 000°40'3 5.3
2018-Jun-20 05:30N 49°41' W 000°43'5 9.1
2018-Jun-20 04:59N 49°43' W 000°50'5 9.9
2018-Jun-20 04:30N 49°44' W 000°57'5 9.5
2018-Jun-20 04:00N 49°45' W 001°04'4 6.5
2018-Jun-20 03:26N 49°47' W 001°09'4 7.3
2018-Jun-20 02:53N 49°48' W 001°15'6011.9
2018-Jun-19 21:52N 49°49' W 002°48'1212.7
2018-Jun-19 20:55N 49°43' W 003°04'712.4
2018-Jun-19 20:23N 49°39' W 003°13'8214.3
2018-Jun-19 14:36N 48°59' W 005°03'615.9
2018-Jun-19 14:14N 48°55' W 005°10'615.8
2018-Jun-19 13:52N 48°53' W 005°18'615.8
2018-Jun-19 13:30N 48°50' W 005°26'7014.3
2018-Jun-19 08:36N 47°40' W 005°22'616.0
2018-Jun-19 08:12N 47°34' W 005°20'316.1
2018-Jun-19 08:00N 47°31' W 005°18'816.0
2018-Jun-19 07:30N 47°23' W 005°15'1716.0
2018-Jun-19 06:25N 47°06' W 005°08'816.0
2018-Jun-19 05:55N 46°59' W 005°05'715.4
2018-Jun-19 05:26N 46°51' W 005°02'816.2
2018-Jun-19 04:56N 46°44' W 004°60'716.4
2018-Jun-19 04:30N 46°37' W 004°57'916.0
2018-Jun-19 03:58N 46°29' W 004°53'17716.0
2018-Jun-18 16:53N 43°38' W 003°47'616.0
2018-Jun-18 16:30N 43°32' W 003°46'5 8.7
2018-Jun-18 15:57N 43°27' W 003°48'4 0.4
2018-Jun-18 03:48N 43°31' W 003°45'310.7
2018-Jun-18 03:30N 43°34' W 003°47'510.8
2018-Jun-18 03:00N 43°39' W 003°49'510.8
2018-Jun-18 02:30N 43°44' W 003°52'22711.2
2018-Jun-17 06:19N 47°21' W 005°27'4816.1
2018-Jun-17 03:21N 48°06' W 005°48'2815.4
2018-Jun-17 01:30N 48°34' W 006°01'815.3
2018-Jun-17 01:00N 48°41' W 006°04'816.0
2018-Jun-17 00:30N 48°49' W 006°04'1015.9
2018-Jun-16 23:53N 48°59' W 006°04'1816.1
2018-Jun-16 22:45N 49°17' W 006°05'1716.1
2018-Jun-16 21:43N 49°33' W 006°02'14816.7
2018-Jun-16 12:52N 52°01' W 006°15'514.3
2018-Jun-16 12:30N 52°06' W 006°16'714.5
2018-Jun-16 12:00N 52°13' W 006°16'3 6.0
2018-Jun-16 11:28N 52°15' W 006°20'0 0.0
2018-Jun-16 10:58N 52°15' W 006°20'0 0.0
2018-Jun-16 10:28N 52°15' W 006°20'0 0.0
2018-Jun-16 09:58N 52°15' W 006°20'0 0.0
2018-Jun-16 09:28N 52°15' W 006°20'0 0.0
2018-Jun-16 08:58N 52°15' W 006°20'0 0.0
2018-Jun-16 08:31N 52°15' W 006°20'1 1.4
2018-Jun-16 08:00N 52°16' W 006°19'813.8
2018-Jun-16 07:27N 52°08' W 006°16'3814.4
2018-Jun-16 04:49N 51°36' W 005°45'516.4
2018-Jun-16 04:30N 51°35' W 005°37'816.5
2018-Jun-16 04:00N 51°33' W 005°24'816.4
2018-Jun-16 03:30N 51°32' W 005°11'816.0
2018-Jun-16 03:00N 51°30' W 004°58'815.7
2018-Jun-16 02:30N 51°29' W 004°45'1116.1
2018-Jun-16 01:49N 51°27' W 004°28'4715.9
2018-Jun-15 22:53N 51°21' W 003°14'815.9
2018-Jun-15 22:21N 51°25' W 003°02'921.2
2018-Jun-15 21:55N 51°29' W 002°49'3 8.1
2018-Jun-15 21:30N 51°30' W 002°43'0 0.7
2018-Jun-15 20:59N 51°30' W 002°43'0 0.0
2018-Jun-15 20:29N 51°30' W 002°43'0 0.0
2018-Jun-15 19:59N 51°30' W 002°43'0 0.0
2018-Jun-15 19:29N 51°30' W 002°43'0 0.0
2018-Jun-15 18:59N 51°30' W 002°43'0 0.0
2018-Jun-15 18:26N 51°30' W 002°43'0 0.0
2018-Jun-15 17:59N 51°30' W 002°43'0 0.0
2018-Jun-15 17:29N 51°30' W 002°43'0 0.0
2018-Jun-15 16:59N 51°30' W 002°43'0 0.0
2018-Jun-15 16:29N 51°30' W 002°43'0 0.0
2018-Jun-15 15:59N 51°30' W 002°43'0 0.0
2018-Jun-15 15:29N 51°30' W 002°43'0 0.0
2018-Jun-15 14:59N 51°30' W 002°43'0 0.0
2018-Jun-15 14:29N 51°30' W 002°43'0 0.0
2018-Jun-15 13:59N 51°30' W 002°43'0 0.0
2018-Jun-15 13:29N 51°30' W 002°43'0 0.0
2018-Jun-15 12:59N 51°30' W 002°43'0 0.0
2018-Jun-15 12:29N 51°30' W 002°43'0 0.0
2018-Jun-15 11:59N 51°30' W 002°43'0 0.0
2018-Jun-15 11:29N 51°30' W 002°43'0 0.0
2018-Jun-15 10:59N 51°30' W 002°43'0 0.0
2018-Jun-15 10:29N 51°30' W 002°43'0 0.0
2018-Jun-15 09:59N 51°30' W 002°43'0 0.0
2018-Jun-15 09:29N 51°30' W 002°43'0 0.0
2018-Jun-15 08:59N 51°30' W 002°43'0 0.0
2018-Jun-15 08:29N 51°30' W 002°43'0 0.6
2018-Jun-15 08:00N 51°30' W 002°43'0 0.7
2018-Jun-15 07:30N 51°30' W 002°44'3 7.0
2018-Jun-15 07:00N 51°29' W 002°49'1120.9
2018-Jun-15 06:29N 51°23' W 003°04'5515.8
2018-Jun-15 03:00N 51°08' W 004°28'815.8
2018-Jun-15 02:30N 51°03' W 004°38'816.0
2018-Jun-15 02:00N 50°57' W 004°47'816.0
2018-Jun-15 01:30N 50°52' W 004°57'816.5
2018-Jun-15 01:00N 50°46' W 005°06'816.3
2018-Jun-15 00:30N 50°41' W 005°16'816.0
2018-Jun-15 00:00N 50°36' W 005°25'815.9
2018-Jun-14 23:30N 50°31' W 005°35'816.2
2018-Jun-14 23:00N 50°25' W 005°44'5610.6
2018-Jun-14 17:46N 49°59' W 004°28'616.0
2018-Jun-14 17:25N 49°60' W 004°20'916.0
2018-Jun-14 16:50N 50°02' W 004°06'716.9
2018-Jun-14 16:24N 50°04' W 003°54'816.5
2018-Jun-14 15:56N 50°06' W 003°43'717.1
2018-Jun-14 15:30N 50°08' W 003°32'1019.1
2018-Jun-14 15:00N 50°12' W 003°18'1019.8
2018-Jun-14 14:30N 50°15' W 003°04'1020.1
2018-Jun-14 14:01N 50°19' W 002°49'1020.6
2018-Jun-14 13:30N 50°23' W 002°34'1121.1
2018-Jun-14 12:59N 50°27' W 002°18'1120.4
2018-Jun-14 12:25N 50°31' W 002°02'819.7
2018-Jun-14 12:00N 50°34' W 001°49'917.3
2018-Jun-14 11:30N 50°39' W 001°38'1016.1
2018-Jun-14 10:51N 50°45' W 001°24'411.2
2018-Jun-14 10:31N 50°47' W 001°19'5 9.8
2018-Jun-14 10:00N 50°52' W 001°22'4 7.8
2018-Jun-14 09:29N 50°54' W 001°26'0 0.3
2018-Jun-14 08:07N 50°54' W 001°26'0 0.0
2018-Jun-14 07:58N 50°54' W 001°26'  
Track history (hours):
 
Tides and Currents Weather Stations Pressure Air Temp Water Temp Dewpoint Dewpoint Depression Visibility Wind Speed Wind Dir Waves Ship Positions

Neptune Aegli

Last reported at 2018-Jun-24 06:59 UTC. Time now 2018-Jun-24 09:16 UTC.
Position N 47°15' W 005°25'.

Length 158 m; draft 5.2 m.

Type: Ship. MMSI: 215170000.

Date/timePositionNaut miles runAvg speedWind from/ knotsBaromVisibWave heightAir tempDewpointWater temp
2018-Jun-24 06:59N 47°15' W 005°25'816.9
2018-Jun-24 06:30N 47°23' W 005°28'1117.1
2018-Jun-24 05:50N 47°34' W 005°33'5116.9
2018-Jun-24 02:50N 48°22' W 005°56'616.8
2018-Jun-24 02:30N 48°27' W 005°58'917.4
2018-Jun-24 02:00N 48°36' W 006°02'1516.8
2018-Jun-24 01:06N 48°51' W 006°04'217.3
2018-Jun-24 01:00N 48°53' W 006°04'917.1
2018-Jun-24 00:30N 49°01' W 006°04'917.2
2018-Jun-23 23:58N 49°10' W 006°03'817.0
2018-Jun-23 23:30N 49°18' W 006°02'2116.8
2018-Jun-23 22:17N 49°39' W 006°02'2316.9
2018-Jun-23 20:57N 50°01' W 006°01'717.0
2018-Jun-23 20:30N 50°09' W 006°01'816.9
2018-Jun-23 20:00N 50°17' W 005°60'817.0
2018-Jun-23 19:30N 50°26' W 006°01'816.9
2018-Jun-23 19:00N 50°34' W 006°02'917.0
2018-Jun-23 18:30N 50°43' W 006°03'917.1
2018-Jun-23 18:00N 50°51' W 006°05'817.0
2018-Jun-23 17:30N 50°59' W 006°06'917.1
2018-Jun-23 17:00N 51°08' W 006°07'917.1
2018-Jun-23 16:31N 51°16' W 006°08'816.8
2018-Jun-23 16:00N 51°25' W 006°10'917.1
2018-Jun-23 15:30N 51°33' W 006°11'817.0
2018-Jun-23 15:00N 51°42' W 006°12'1217.0
2018-Jun-23 14:19N 51°53' W 006°14'516.9
2018-Jun-23 14:00N 51°59' W 006°15'916.9
2018-Jun-23 13:29N 52°08' W 006°16'715.8
2018-Jun-23 13:00N 52°15' W 006°18'2 2.5
2018-Jun-23 12:19N 52°15' W 006°20'0 0.0
2018-Jun-23 11:58N 52°15' W 006°20'0 0.0
2018-Jun-23 11:28N 52°15' W 006°20'0 0.0
2018-Jun-23 10:58N 52°15' W 006°20'0 0.0
2018-Jun-23 10:28N 52°15' W 006°20'0 0.0
2018-Jun-23 09:58N 52°15' W 006°20'0 0.0
2018-Jun-23 09:29N 52°15' W 006°20'1 1.1
2018-Jun-23 09:01N 52°16' W 006°20'611.0
2018-Jun-23 08:30N 52°11' W 006°16'1218.2
2018-Jun-23 07:52N 51°59' W 006°12'1918.8
2018-Jun-23 06:53N 51°41' W 006°05'616.7
2018-Jun-23 06:31N 51°37' W 005°57'1019.7
2018-Jun-23 06:01N 51°35' W 005°42'1020.2
2018-Jun-23 05:30N 51°33' W 005°26'1020.4
2018-Jun-23 05:01N 51°31' W 005°10'1020.6
2018-Jun-23 04:31N 51°30' W 004°53'1020.6
2018-Jun-23 04:01N 51°28' W 004°37'1020.4
2018-Jun-23 03:31N 51°26' W 004°21'2419.2
2018-Jun-23 02:14N 51°22' W 003°43'618.3
2018-Jun-23 01:56N 51°21' W 003°34'918.0
2018-Jun-23 01:26N 51°21' W 003°19'712.8
2018-Jun-23 00:52N 51°22' W 003°08'716.3
2018-Jun-23 00:28N 51°26' W 003°00'715.8
2018-Jun-23 00:00N 51°29' W 002°49'4 7.8
2018-Jun-22 23:30N 51°30' W 002°43'0 0.7
2018-Jun-22 23:00N 51°30' W 002°43'0 0.2
2018-Jun-22 22:29N 51°30' W 002°43'0 0.0
2018-Jun-22 21:59N 51°30' W 002°43'0 0.0
2018-Jun-22 21:29N 51°30' W 002°43'0 0.0
2018-Jun-22 20:59N 51°30' W 002°43'0 0.0
2018-Jun-22 20:29N 51°30' W 002°43'0 0.0
2018-Jun-22 19:59N 51°30' W 002°43'0 0.0
2018-Jun-22 19:29N 51°30' W 002°43'0 0.0
2018-Jun-22 18:59N 51°30' W 002°43'0 0.0
2018-Jun-22 18:29N 51°30' W 002°43'0 0.0
2018-Jun-22 17:59N 51°30' W 002°43'0 0.0
2018-Jun-22 17:29N 51°30' W 002°43'0 0.0
2018-Jun-22 16:59N 51°30' W 002°43'0 0.0
2018-Jun-22 16:29N 51°30' W 002°43'0 0.0
2018-Jun-22 15:59N 51°30' W 002°43'0 0.0
2018-Jun-22 15:29N 51°30' W 002°43'0 0.0
2018-Jun-22 14:59N 51°30' W 002°43'0 0.0
2018-Jun-22 14:29N 51°30' W 002°43'0 0.0
2018-Jun-22 13:59N 51°30' W 002°43'0 0.1
2018-Jun-22 13:30N 51°30' W 002°43'0 0.8
2018-Jun-22 13:00N 51°30' W 002°44'0 0.8
2018-Jun-22 12:30N 51°30' W 002°44'2 4.6
2018-Jun-22 12:00N 51°30' W 002°47'714.2
2018-Jun-22 11:30N 51°27' W 002°58'6210.4
2018-Jun-22 05:34N 51°06' W 004°31'110.8
2018-Jun-22 05:30N 51°06' W 004°32'510.4
2018-Jun-22 05:00N 51°02' W 004°38'510.6
2018-Jun-22 04:30N 50°59' W 004°44'610.9
2018-Jun-22 04:00N 50°55' W 004°51'511.1
2018-Jun-22 03:30N 50°52' W 004°58'611.1
2018-Jun-22 03:00N 50°48' W 005°04'611.0
2018-Jun-22 02:30N 50°44' W 005°11'510.9
2018-Jun-22 02:00N 50°41' W 005°17'611.0
2018-Jun-22 01:30N 50°37' W 005°24'511.0
2018-Jun-22 01:00N 50°33' W 005°30'511.0
2018-Jun-22 00:30N 50°30' W 005°36'610.9
2018-Jun-21 23:56N 50°25' W 005°44'55 8.1
2018-Jun-21 17:07N 49°59' W 004°28'615.9
2018-Jun-21 16:44N 49°60' W 004°19'816.0
2018-Jun-21 16:13N 50°03' W 004°07'816.2
2018-Jun-21 15:44N 50°04' W 003°55'716.1
2018-Jun-21 15:19N 50°05' W 003°45'516.0
2018-Jun-21 15:00N 50°07' W 003°37'815.9
2018-Jun-21 14:31N 50°10' W 003°26'816.2
2018-Jun-21 14:01N 50°13' W 003°14'816.0
2018-Jun-21 13:30N 50°16' W 003°02'815.9
2018-Jun-21 13:00N 50°19' W 002°51'815.8
2018-Jun-21 12:30N 50°21' W 002°39'815.8
2018-Jun-21 12:00N 50°24' W 002°28'1516.1
2018-Jun-21 11:03N 50°30' W 002°05'216.9
2018-Jun-21 10:55N 50°30' W 002°02'716.7
2018-Jun-21 10:30N 50°33' W 001°52'917.6
2018-Jun-21 10:00N 50°38' W 001°40'1019.4
2018-Jun-21 09:30N 50°44' W 001°28'713.6
2018-Jun-21 09:00N 50°47' W 001°19'612.1
2018-Jun-21 08:30N 50°53' W 001°23'2 4.2
2018-Jun-21 07:59N 50°54' W 001°26'0 0.1
2018-Jun-21 07:30N 50°54' W 001°26'0 0.0
2018-Jun-21 07:00N 50°54' W 001°26'0 0.0
2018-Jun-21 06:30N 50°54' W 001°26'0 0.0
2018-Jun-21 06:00N 50°54' W 001°26'0 0.0
2018-Jun-21 05:30N 50°54' W 001°26'0 0.0
2018-Jun-21 05:01N 50°54' W 001°26'2 3.9
2018-Jun-21 04:31N 50°53' W 001°24'510.4
2018-Jun-21 04:01N 50°49' W 001°18'4 7.7
2018-Jun-21 03:30N 50°46' W 001°14'917.6
2018-Jun-21 03:00N 50°43' W 001°01'714.0
2018-Jun-21 02:31N 50°36' W 000°57'714.1
2018-Jun-21 02:00N 50°30' W 000°52'917.3
2018-Jun-21 01:30N 50°23' W 000°45'2617.4
2018-Jun-21 00:02N 50°01' W 000°25'117.6
2018-Jun-20 23:58N 49°60' W 000°24'817.8
2018-Jun-20 23:30N 49°53' W 000°18'918.0
2018-Jun-20 23:00N 49°45' W 000°11'918.3
2018-Jun-20 22:30N 49°37' W 000°03'815.3
2018-Jun-20 22:00N 49°30' E 000°01'611.0
2018-Jun-20 21:30N 49°28' E 000°09'1 1.1
2018-Jun-20 21:00N 49°29' E 000°10'0 0.0
2018-Jun-20 20:30N 49°29' E 000°10'1 1.9
2018-Jun-20 19:58N 49°28' E 000°12'0 0.0
2018-Jun-20 19:28N 49°28' E 000°12'0 0.0
2018-Jun-20 18:58N 49°28' E 000°12'0 0.0
2018-Jun-20 18:28N 49°28' E 000°12'0 0.0
2018-Jun-20 17:58N 49°28' E 000°12'0 0.0
2018-Jun-20 17:28N 49°28' E 000°12'0 0.0
2018-Jun-20 16:58N 49°28' E 000°12'0 0.0
2018-Jun-20 16:28N 49°28' E 000°12'0 0.0
2018-Jun-20 15:58N 49°28' E 000°12'0 0.0
2018-Jun-20 15:28N 49°28' E 000°12'0 0.0
2018-Jun-20 14:58N 49°28' E 000°12'0 0.0
2018-Jun-20 14:28N 49°28' E 000°12'0 0.3
2018-Jun-20 14:01N 49°28' E 000°12'1 2.0
2018-Jun-20 13:30N 49°29' E 000°10'0 0.5
2018-Jun-20 13:00N 49°28' E 000°10'1 1.6
2018-Jun-20 12:30N 49°28' E 000°09'1 2.3
2018-Jun-20 12:00N 49°29' E 000°07'3 5.9
2018-Jun-20 11:30N 49°30' E 000°03'611.7
2018-Jun-20 11:00N 49°31' W 000°06'3 5.3
2018-Jun-20 10:30N 49°32' W 000°10'2 4.2
2018-Jun-20 10:00N 49°33' W 000°13'2 4.6
2018-Jun-20 09:30N 49°33' W 000°16'2 4.7
2018-Jun-20 09:00N 49°34' W 000°20'2 4.6
2018-Jun-20 08:30N 49°35' W 000°23'2 4.5
2018-Jun-20 08:00N 49°36' W 000°26'2 4.6
2018-Jun-20 07:31N 49°37' W 000°29'2 4.6
2018-Jun-20 06:59N 49°38' W 000°33'2 4.8
2018-Jun-20 06:30N 49°39' W 000°36'3 5.0
2018-Jun-20 05:59N 49°40' W 000°40'3 5.3
2018-Jun-20 05:30N 49°41' W 000°43'5 9.1
2018-Jun-20 04:59N 49°43' W 000°50'5 9.9
2018-Jun-20 04:30N 49°44' W 000°57'5 9.5
2018-Jun-20 04:00N 49°45' W 001°04'4 6.5
2018-Jun-20 03:26N 49°47' W 001°09'4 7.3
2018-Jun-20 02:53N 49°48' W 001°15'6011.9
2018-Jun-19 21:52N 49°49' W 002°48'1212.7
2018-Jun-19 20:55N 49°43' W 003°04'712.4
2018-Jun-19 20:23N 49°39' W 003°13'8214.3
2018-Jun-19 14:36N 48°59' W 005°03'615.9
2018-Jun-19 14:14N 48°55' W 005°10'615.8
2018-Jun-19 13:52N 48°53' W 005°18'615.8
2018-Jun-19 13:30N 48°50' W 005°26'7014.3
2018-Jun-19 08:36N 47°40' W 005°22'616.0
2018-Jun-19 08:12N 47°34' W 005°20'316.1
2018-Jun-19 08:00N 47°31' W 005°18'816.0
2018-Jun-19 07:30N 47°23' W 005°15'1716.0
2018-Jun-19 06:25N 47°06' W 005°08'816.0
2018-Jun-19 05:55N 46°59' W 005°05'715.4
2018-Jun-19 05:26N 46°51' W 005°02'816.2
2018-Jun-19 04:56N 46°44' W 004°60'716.4
2018-Jun-19 04:30N 46°37' W 004°57'916.0
2018-Jun-19 03:58N 46°29' W 004°53'17716.0
2018-Jun-18 16:53N 43°38' W 003°47'616.0
2018-Jun-18 16:30N 43°32' W 003°46'5 8.7
2018-Jun-18 15:57N 43°27' W 003°48'4 0.4
2018-Jun-18 03:48N 43°31' W 003°45'310.7
2018-Jun-18 03:30N 43°34' W 003°47'510.8
2018-Jun-18 03:00N 43°39' W 003°49'510.8
2018-Jun-18 02:30N 43°44' W 003°52'22711.2
2018-Jun-17 06:19N 47°21' W 005°27'4816.1
2018-Jun-17 03:21N 48°06' W 005°48'2815.4
2018-Jun-17 01:30N 48°34' W 006°01'815.3
2018-Jun-17 01:00N 48°41' W 006°04'816.0
2018-Jun-17 00:30N 48°49' W 006°04'1015.9
2018-Jun-16 23:53N 48°59' W 006°04'1816.1
2018-Jun-16 22:45N 49°17' W 006°05'1716.1
2018-Jun-16 21:43N 49°33' W 006°02'14816.7
2018-Jun-16 12:52N 52°01' W 006°15'514.3
2018-Jun-16 12:30N 52°06' W 006°16'714.5
2018-Jun-16 12:00N 52°13' W 006°16'3 6.0
2018-Jun-16 11:28N 52°15' W 006°20'0 0.0
2018-Jun-16 10:58N 52°15' W 006°20'0 0.0
2018-Jun-16 10:28N 52°15' W 006°20'0 0.0
2018-Jun-16 09:58N 52°15' W 006°20'0 0.0
2018-Jun-16 09:28N 52°15' W 006°20'0 0.0
2018-Jun-16 08:58N 52°15' W 006°20'0 0.0
2018-Jun-16 08:31N 52°15' W 006°20'1 1.4
2018-Jun-16 08:00N 52°16' W 006°19'813.8
2018-Jun-16 07:27N 52°08' W 006°16'3814.4
2018-Jun-16 04:49N 51°36' W 005°45'516.4
2018-Jun-16 04:30N 51°35' W 005°37'816.5
2018-Jun-16 04:00N 51°33' W 005°24'816.4
2018-Jun-16 03:30N 51°32' W 005°11'816.0
2018-Jun-16 03:00N 51°30' W 004°58'815.7
2018-Jun-16 02:30N 51°29' W 004°45'1116.1
2018-Jun-16 01:49N 51°27' W 004°28'4715.9
2018-Jun-15 22:53N 51°21' W 003°14'815.9
2018-Jun-15 22:21N 51°25' W 003°02'921.2
2018-Jun-15 21:55N 51°29' W 002°49'3 8.1
2018-Jun-15 21:30N 51°30' W 002°43'0 0.7
2018-Jun-15 20:59N 51°30' W 002°43'0 0.0
2018-Jun-15 20:29N 51°30' W 002°43'0 0.0
2018-Jun-15 19:59N 51°30' W 002°43'0 0.0
2018-Jun-15 19:29N 51°30' W 002°43'0 0.0
2018-Jun-15 18:59N 51°30' W 002°43'0 0.0
2018-Jun-15 18:26N 51°30' W 002°43'0 0.0
2018-Jun-15 17:59N 51°30' W 002°43'0 0.0
2018-Jun-15 17:29N 51°30' W 002°43'0 0.0
2018-Jun-15 16:59N 51°30' W 002°43'0 0.0
2018-Jun-15 16:29N 51°30' W 002°43'0 0.0
2018-Jun-15 15:59N 51°30' W 002°43'0 0.0
2018-Jun-15 15:29N 51°30' W 002°43'0 0.0
2018-Jun-15 14:59N 51°30' W 002°43'0 0.0
2018-Jun-15 14:29N 51°30' W 002°43'0 0.0
2018-Jun-15 13:59N 51°30' W 002°43'0 0.0
2018-Jun-15 13:29N 51°30' W 002°43'0 0.0
2018-Jun-15 12:59N 51°30' W 002°43'0 0.0
2018-Jun-15 12:29N 51°30' W 002°43'0 0.0
2018-Jun-15 11:59N 51°30' W 002°43'0 0.0
2018-Jun-15 11:29N 51°30' W 002°43'0 0.0
2018-Jun-15 10:59N 51°30' W 002°43'0 0.0
2018-Jun-15 10:29N 51°30' W 002°43'0 0.0
2018-Jun-15 09:59N 51°30' W 002°43'0 0.0
2018-Jun-15 09:29N 51°30' W 002°43'0 0.0
2018-Jun-15 08:59N 51°30' W 002°43'0 0.0
2018-Jun-15 08:29N 51°30' W 002°43'0 0.6
2018-Jun-15 08:00N 51°30' W 002°43'0 0.7
2018-Jun-15 07:30N 51°30' W 002°44'3 7.0
2018-Jun-15 07:00N 51°29' W 002°49'1120.9
2018-Jun-15 06:29N 51°23' W 003°04'5515.8
2018-Jun-15 03:00N 51°08' W 004°28'815.8
2018-Jun-15 02:30N 51°03' W 004°38'816.0
2018-Jun-15 02:00N 50°57' W 004°47'816.0
2018-Jun-15 01:30N 50°52' W 004°57'816.5
2018-Jun-15 01:00N 50°46' W 005°06'816.3
2018-Jun-15 00:30N 50°41' W 005°16'816.0
2018-Jun-15 00:00N 50°36' W 005°25'815.9
2018-Jun-14 23:30N 50°31' W 005°35'816.2
2018-Jun-14 23:00N 50°25' W 005°44'5610.6
2018-Jun-14 17:46N 49°59' W 004°28'616.0
2018-Jun-14 17:25N 49°60' W 004°20'916.0
2018-Jun-14 16:50N 50°02' W 004°06'716.9
2018-Jun-14 16:24N 50°04' W 003°54'816.5
2018-Jun-14 15:56N 50°06' W 003°43'717.1
2018-Jun-14 15:30N 50°08' W 003°32'1019.1
2018-Jun-14 15:00N 50°12' W 003°18'1019.8
2018-Jun-14 14:30N 50°15' W 003°04'1020.1
2018-Jun-14 14:01N 50°19' W 002°49'1020.6
2018-Jun-14 13:30N 50°23' W 002°34'1121.1
2018-Jun-14 12:59N 50°27' W 002°18'1120.4
2018-Jun-14 12:25N 50°31' W 002°02'819.7
2018-Jun-14 12:00N 50°34' W 001°49'917.3
2018-Jun-14 11:30N 50°39' W 001°38'1016.1
2018-Jun-14 10:51N 50°45' W 001°24'411.2
2018-Jun-14 10:31N 50°47' W 001°19'5 9.8
2018-Jun-14 10:00N 50°52' W 001°22'4 7.8
2018-Jun-14 09:29N 50°54' W 001°26'0 0.3
2018-Jun-14 08:07N 50°54' W 001°26'0 0.0
2018-Jun-14 07:58N 50°54' W 001°26'  

Dump ship's entire track history